createdAt,value
2024-02-28T00:00:54.442Z,8.88
2024-02-28T00:05:10.624Z,9.60
2024-02-28T00:09:26.923Z,10.18
2024-02-28T00:13:43.171Z,9.52
2024-02-28T00:17:59.446Z,8.95
2024-02-28T00:22:15.831Z,9.60
2024-02-28T00:26:32.475Z,9.48
2024-02-28T00:30:49.034Z,10.85
2024-02-28T00:35:05.706Z,10.63
2024-02-28T00:39:21.950Z,9.68
2024-02-28T00:43:38.288Z,9.95
2024-02-28T00:47:56.311Z,9.93
2024-02-28T00:52:12.590Z,9.75
2024-02-28T00:56:28.913Z,9.82
2024-02-28T01:00:45.217Z,10.10
2024-02-28T01:05:01.451Z,9.23
2024-02-28T01:09:17.647Z,9.63
2024-02-28T01:13:33.833Z,10.52
2024-02-28T01:17:50.207Z,9.35
2024-02-28T01:22:06.371Z,11.07
2024-02-28T01:26:23.465Z,10.40
2024-02-28T01:30:39.746Z,10.65
2024-02-28T01:34:55.991Z,10.10
2024-02-28T01:39:12.219Z,10.35
2024-02-28T01:43:28.553Z,10.80
2024-02-28T01:47:44.985Z,10.07
2024-02-28T01:52:01.429Z,9.38
2024-02-28T01:56:17.963Z,9.38
2024-02-28T02:00:35.341Z,10.10
2024-02-28T02:04:54.301Z,10.13
2024-02-28T02:09:10.675Z,9.63
2024-02-28T02:13:26.925Z,8.85
2024-02-28T02:17:43.315Z,10.38
2024-02-28T02:22:01.083Z,10.80
2024-02-28T02:26:17.691Z,11.07
2024-02-28T02:30:34.003Z,10.85
2024-02-28T02:34:50.232Z,11.65
2024-02-28T02:39:09.226Z,10.73
2024-02-28T02:43:25.565Z,10.50
2024-02-28T02:47:41.905Z,10.77
2024-02-28T02:51:58.296Z,10.88
2024-02-28T02:56:14.738Z,10.38
2024-02-28T03:00:31.202Z,11.85
2024-02-28T03:04:47.614Z,10.25
2024-02-28T03:09:04.880Z,10.50
2024-02-28T03:13:21.240Z,10.82
2024-02-28T03:17:37.541Z,11.68
2024-02-28T03:21:53.971Z,11.45
2024-02-28T03:26:10.420Z,11.12
2024-02-28T03:30:26.997Z,10.38
2024-02-28T03:34:43.259Z,11.60
2024-02-28T03:38:59.500Z,10.63
2024-02-28T03:43:15.946Z,10.60
2024-02-28T03:47:32.258Z,11.00
2024-02-28T03:51:48.651Z,10.40
2024-02-28T03:56:05.506Z,11.43
2024-02-28T04:00:21.978Z,10.35
2024-02-28T04:04:38.500Z,11.32
2024-02-28T04:08:55.066Z,11.63
2024-02-28T04:13:11.412Z,10.93
2024-02-28T04:17:27.798Z,9.68
2024-02-28T04:21:44.232Z,9.65
2024-02-28T04:26:00.529Z,10.43
2024-02-28T04:30:16.924Z,10.25
2024-02-28T04:34:33.183Z,10.55
2024-02-28T04:38:49.621Z,10.55
2024-02-28T04:43:06.062Z,9.48
2024-02-28T04:47:29.594Z,10.00
2024-02-28T04:51:50.096Z,9.93
2024-02-28T04:56:06.525Z,9.00
2024-02-28T05:00:22.902Z,9.48
2024-02-28T05:04:39.178Z,9.73
2024-02-28T05:08:55.826Z,9.30
2024-02-28T05:13:12.215Z,9.63
2024-02-28T05:17:30.055Z,9.25
2024-02-28T05:21:46.875Z,9.35
2024-02-28T05:26:05.515Z,8.20
2024-02-28T05:30:22.431Z,9.25
2024-02-28T05:34:38.803Z,9.10
2024-02-28T05:38:56.531Z,8.90
2024-02-28T05:43:12.847Z,8.43
2024-02-28T05:47:30.263Z,8.23
2024-02-28T05:51:47.804Z,9.75
2024-02-28T05:56:04.632Z,8.63
2024-02-28T06:00:21.206Z,8.75
2024-02-28T06:04:37.533Z,8.32
2024-02-28T06:08:53.822Z,8.85
2024-02-28T06:13:10.326Z,8.60
2024-02-28T06:17:26.626Z,8.95
2024-02-28T06:21:42.947Z,8.35
2024-02-28T06:25:59.460Z,8.63
2024-02-28T06:30:16.047Z,9.15
2024-02-28T06:34:32.477Z,8.85
2024-02-28T06:38:48.693Z,8.70
2024-02-28T06:43:06.373Z,9.38
2024-02-28T06:47:22.810Z,7.70
2024-02-28T06:51:39.231Z,8.68
2024-02-28T06:55:55.668Z,8.18
2024-02-28T07:00:20.455Z,7.43
2024-02-28T07:04:37.985Z,8.35
2024-02-28T07:08:54.208Z,8.65
2024-02-28T07:13:11.087Z,8.15
2024-02-28T07:17:27.483Z,7.55
2024-02-28T07:21:43.812Z,8.02
2024-02-28T07:26:06.095Z,8.48
2024-02-28T07:30:29.643Z,7.82
2024-02-28T07:34:46.024Z,7.95
2024-02-28T07:39:02.232Z,7.90
2024-02-28T07:43:18.547Z,8.70
2024-02-28T07:47:34.849Z,8.45
2024-02-28T07:51:51.486Z,7.55
2024-02-28T07:56:07.794Z,8.38
2024-02-28T08:00:24.160Z,8.30
2024-02-28T08:04:40.650Z,8.70
2024-02-28T08:08:57.080Z,8.50
2024-02-28T08:13:13.301Z,7.68
2024-02-28T08:17:29.933Z,8.10
2024-02-28T08:21:46.430Z,7.20
2024-02-28T08:26:02.907Z,7.78
2024-02-28T08:30:19.382Z,8.40
2024-02-28T08:34:35.605Z,7.70
2024-02-28T08:38:52.975Z,7.95
2024-02-28T08:43:09.352Z,7.37
2024-02-28T08:47:28.731Z,7.12
2024-02-28T08:51:46.397Z,7.45
2024-02-28T08:56:03.468Z,7.15
2024-02-28T09:00:19.838Z,6.93
2024-02-28T09:04:36.463Z,6.32
2024-02-28T09:08:52.663Z,6.50
2024-02-28T09:13:09.359Z,6.60
2024-02-28T09:17:25.816Z,6.30
2024-02-28T09:21:42.111Z,6.82
2024-02-28T09:25:59.158Z,6.35
2024-02-28T09:30:16.802Z,6.55
2024-02-28T09:34:33.088Z,5.97
2024-02-28T09:38:49.313Z,6.47
2024-02-28T09:43:05.899Z,6.40
2024-02-28T09:47:22.144Z,7.00
2024-02-28T09:51:38.665Z,7.20
2024-02-28T09:55:55.365Z,7.22
2024-02-28T10:00:12.574Z,6.55
2024-02-28T10:04:29.252Z,6.65
2024-02-28T10:08:48.473Z,6.35
2024-02-28T10:13:05.105Z,7.00
2024-02-28T10:17:21.503Z,7.00
2024-02-28T10:21:41.002Z,7.28
2024-02-28T10:25:58.367Z,6.87
2024-02-28T10:30:17.439Z,7.03
2024-02-28T10:34:36.264Z,6.85
2024-02-28T10:38:52.542Z,7.05
2024-02-28T10:43:12.457Z,6.45
2024-02-28T10:47:29.588Z,6.72
2024-02-28T10:51:48.202Z,7.05
2024-02-28T10:56:06.271Z,7.68
2024-02-28T11:00:22.624Z,7.12
2024-02-28T11:04:38.836Z,7.15
2024-02-28T11:08:56.013Z,7.72
2024-02-28T11:13:22.317Z,6.68
2024-02-28T11:17:38.561Z,7.35
2024-02-28T11:21:58.629Z,7.22
2024-02-28T11:26:15.173Z,6.50
2024-02-28T11:30:32.228Z,6.57
2024-02-28T11:34:48.975Z,7.15
2024-02-28T11:39:05.298Z,7.55
2024-02-28T11:43:21.917Z,7.40
2024-02-28T11:47:38.748Z,6.60
2024-02-28T11:51:55.095Z,7.15
2024-02-28T11:56:11.356Z,6.97
2024-02-28T12:00:27.905Z,7.07
2024-02-28T12:04:44.890Z,6.97
2024-02-28T12:09:01.323Z,6.45
2024-02-28T12:13:21.802Z,6.93
2024-02-28T12:17:38.299Z,6.93
2024-02-28T12:21:54.713Z,7.15
2024-02-28T12:26:10.944Z,6.50
2024-02-28T12:30:27.791Z,6.40
2024-02-28T12:34:44.076Z,6.40
2024-02-28T12:39:00.941Z,6.35
2024-02-28T12:43:17.264Z,6.30
2024-02-28T12:47:33.685Z,6.87
2024-02-28T12:51:50.808Z,6.53
2024-02-28T12:56:07.279Z,5.90
2024-02-28T13:00:23.698Z,7.10
2024-02-28T13:04:40.683Z,7.18
2024-02-28T13:08:57.176Z,6.87
2024-02-28T13:13:14.420Z,7.15
2024-02-28T13:17:30.737Z,7.10
2024-02-28T13:21:47.137Z,6.90
2024-02-28T13:26:03.981Z,6.80
2024-02-28T13:30:20.607Z,6.85
2024-02-28T13:34:36.953Z,6.82
2024-02-28T13:38:53.304Z,7.32
2024-02-28T13:43:09.582Z,6.93
2024-02-28T13:47:26.067Z,7.30
2024-02-28T13:51:43.316Z,7.55
2024-02-28T13:55:59.598Z,6.68
2024-02-28T14:00:16.501Z,6.82
2024-02-28T14:04:32.721Z,6.47
2024-02-28T14:08:49.140Z,6.55
2024-02-28T14:13:05.672Z,7.03
2024-02-28T14:17:22.027Z,6.90
2024-02-28T14:21:38.380Z,7.45
2024-02-28T14:25:54.679Z,7.00
2024-02-28T14:30:11.753Z,8.13
2024-02-28T14:34:32.570Z,7.57
2024-02-28T14:38:48.958Z,6.75
2024-02-28T14:43:05.333Z,7.40
2024-02-28T14:47:21.850Z,8.40
2024-02-28T14:51:40.269Z,31.90
2024-02-28T14:55:56.976Z,8.80
2024-02-28T15:00:16.571Z,7.35
2024-02-28T15:04:32.743Z,16.25
2024-02-28T15:08:50.207Z,24.37
2024-02-28T15:13:07.952Z,12.95
2024-02-28T15:17:24.243Z,13.88
2024-02-28T15:21:40.726Z,9.90
2024-02-28T15:25:57.092Z,8.02
2024-02-28T15:30:14.000Z,8.52
2024-02-28T15:34:30.573Z,8.20
2024-02-28T15:38:46.938Z,8.75
2024-02-28T15:43:03.377Z,8.98
2024-02-28T15:47:19.671Z,8.00
2024-02-28T15:51:36.984Z,9.02
2024-02-28T15:55:53.701Z,8.43
2024-02-28T16:00:11.138Z,8.15
2024-02-28T16:04:27.574Z,9.15
2024-02-28T16:08:44.353Z,8.35
2024-02-28T16:13:04.383Z,9.68
2024-02-28T16:17:20.780Z,9.65
2024-02-28T16:21:37.259Z,9.15
2024-02-28T16:25:56.708Z,9.07
2024-02-28T16:30:13.237Z,10.43
2024-02-28T16:34:30.471Z,10.20
2024-02-28T16:38:49.114Z,9.85
2024-02-28T16:43:05.910Z,9.05
2024-02-28T16:47:22.852Z,9.98
2024-02-28T16:51:42.647Z,10.05
2024-02-28T16:56:00.697Z,9.43
2024-02-28T17:00:20.160Z,8.40
2024-02-28T17:04:39.275Z,10.48
2024-02-28T17:08:55.564Z,9.63
2024-02-28T17:13:14.038Z,9.68
2024-02-28T17:17:30.821Z,9.07
2024-02-28T17:21:47.290Z,8.77
2024-02-28T17:26:03.981Z,10.27
2024-02-28T17:30:20.273Z,10.57
2024-02-28T17:34:36.494Z,9.27
2024-02-28T17:38:52.672Z,9.38
2024-02-28T17:43:09.799Z,9.90
2024-02-28T17:47:26.581Z,9.27
2024-02-28T17:51:43.956Z,9.48
2024-02-28T17:56:00.298Z,8.77
2024-02-28T18:00:22.635Z,9.93
2024-02-28T18:04:38.951Z,9.10
2024-02-28T18:08:56.429Z,8.63
2024-02-28T18:13:18.998Z,9.25
2024-02-28T18:17:35.797Z,9.93
2024-02-28T18:21:52.187Z,10.18
2024-02-28T18:26:09.770Z,11.15
2024-02-28T18:30:27.222Z,9.93
2024-02-28T18:34:44.761Z,9.57
2024-02-28T18:39:03.523Z,11.00
2024-02-28T18:43:20.371Z,11.20
2024-02-28T18:47:36.752Z,9.85
2024-02-28T18:51:54.161Z,11.00
2024-02-28T18:56:10.540Z,10.18
2024-02-28T19:00:29.217Z,11.07
2024-02-28T19:04:46.360Z,11.57
2024-02-28T19:09:02.665Z,13.65
2024-02-28T19:13:19.709Z,11.45
2024-02-28T19:17:35.926Z,13.80
2024-02-28T19:21:52.962Z,12.70
2024-02-28T19:26:09.208Z,11.95
2024-02-28T19:30:25.689Z,12.60
2024-02-28T19:34:42.063Z,13.07
2024-02-28T19:39:02.204Z,12.63
2024-02-28T19:43:18.485Z,11.55
2024-02-28T19:47:34.952Z,11.27
2024-02-28T19:51:51.213Z,11.50
2024-02-28T19:56:07.439Z,11.95
2024-02-28T20:00:23.977Z,11.23
2024-02-28T20:04:40.635Z,9.82
2024-02-28T20:08:56.822Z,11.05
2024-02-28T20:13:13.165Z,11.88
2024-02-28T20:17:29.470Z,13.60
2024-02-28T20:21:45.645Z,12.07
2024-02-28T20:26:01.991Z,11.35
2024-02-28T20:30:18.357Z,11.00
2024-02-28T20:34:36.829Z,11.20
2024-02-28T20:38:57.208Z,11.35
2024-02-28T20:43:13.455Z,12.75
2024-02-28T20:47:29.816Z,12.57
2024-02-28T20:51:46.075Z,12.15
2024-02-28T20:56:02.278Z,12.77
2024-02-28T21:00:18.567Z,14.30
2024-02-28T21:04:38.865Z,13.05
2024-02-28T21:08:56.943Z,12.40
2024-02-28T21:13:13.227Z,12.18
2024-02-28T21:17:29.856Z,12.55
2024-02-28T21:21:46.201Z,14.20
2024-02-28T21:26:02.423Z,12.15
2024-02-28T21:30:18.872Z,12.75
2024-02-28T21:34:35.017Z,12.60
2024-02-28T21:38:53.139Z,12.50
2024-02-28T21:43:09.622Z,12.63
2024-02-28T21:47:26.628Z,12.10
2024-02-28T21:51:42.961Z,12.68
2024-02-28T21:55:59.253Z,12.15
2024-02-28T22:00:15.847Z,11.93
2024-02-28T22:04:32.087Z,11.68
2024-02-28T22:08:48.284Z,12.90
2024-02-28T22:13:05.686Z,12.73
2024-02-28T22:17:22.045Z,12.93
2024-02-28T22:21:38.262Z,13.50
2024-02-28T22:25:54.582Z,13.45
2024-02-28T22:30:10.992Z,12.77
2024-02-28T22:34:27.267Z,12.85
2024-02-28T22:38:43.569Z,13.45
2024-02-28T22:42:59.938Z,12.80
2024-02-28T22:47:16.266Z,12.75
2024-02-28T22:51:33.038Z,13.27
2024-02-28T22:55:49.437Z,13.77
2024-02-28T23:00:27.376Z,15.45
2024-02-28T23:04:43.762Z,16.80
2024-02-28T23:09:00.199Z,16.60
2024-02-28T23:13:16.852Z,16.15
2024-02-28T23:17:33.575Z,17.62
2024-02-28T23:21:49.958Z,19.75
2024-02-28T23:26:06.232Z,20.17
2024-02-28T23:30:23.161Z,19.70
2024-02-28T23:34:39.369Z,20.12
2024-02-28T23:38:55.603Z,17.80
2024-02-28T23:43:11.924Z,17.37
2024-02-28T23:47:28.290Z,14.93
2024-02-28T23:51:47.700Z,17.20
2024-02-28T23:56:04.014Z,18.35
